Time;durP1;ratioP1;P1;durP2;ratioP2;P2;SDS_P1;SDS_P2;PMS_P1;PMS_P2;Temp;Humidity;BMP_temperature;BMP_pressure;BME280_temperature;BME280_humidity;BME280_pressure;Samples;Min_cycle;Max_cycle;Signal;HPM_P1;HPM_P2
2023/06/27 00:01:06;;;;;;;2.55;1.08;;;;;;;20.30;45.46;98395.81;5053287;28;20021;-72
2023/06/27 00:03:33;;;;;;;1.75;1.08;;;;;;;19.90;46.39;98396.50;5060205;28;20104;-72
2023/06/27 00:06:03;;;;;;;3.50;1.10;;;;;;;20.27;45.21;98401.88;5053557;28;20021;-71
2023/06/27 00:08:29;;;;;;;2.90;1.38;;;;;;;19.97;45.57;98407.84;5068565;28;20115;-71
2023/06/27 00:10:55;;;;;;;1.20;0.77;;;;;;;19.80;46.16;98415.78;5073390;28;20720;-72
2023/06/27 00:13:20;;;;;;;4.80;1.05;;;;;;;20.29;45.29;98410.59;5059389;28;20041;-71
2023/06/27 00:15:48;;;;;;;1.38;1.27;;;;;;;19.63;46.45;98415.50;5072989;28;20035;-71
2023/06/27 00:18:17;;;;;;;1.33;0.90;;;;;;;19.89;45.61;98422.19;5059568;28;20037;-72
2023/06/27 00:20:42;;;;;;;218.10;86.15;;;;;;;20.02;45.85;98426.09;5053274;28;20384;-72
2023/06/27 00:23:18;;;;;;;243.20;130.77;;;;;;;20.28;45.58;98425.38;5053843;28;20085;-72
2023/06/27 00:25:44;;;;;;;5.45;1.90;;;;;;;20.11;45.57;98419.66;5053078;28;20450;-72
2023/06/27 00:28:10;;;;;;;134.32;20.38;;;;;;;19.44;47.28;98420.22;5053146;28;20053;-72
2023/06/27 00:30:35;;;;;;;117.00;73.15;;;;;;;19.78;46.34;98426.22;5061118;28;20063;-72
2023/06/27 00:33:01;;;;;;;303.38;144.98;;;;;;;19.88;46.33;98426.84;5041480;28;20112;-72
2023/06/27 00:35:26;;;;;;;1999.90;999.90;;;;;;;19.06;47.92;98420.16;5054077;28;20033;-72
2023/06/27 00:37:52;;;;;;;72.70;45.17;;;;;;;19.37;47.75;98425.22;5052895;28;20028;-71
2023/06/27 00:40:18;;;;;;;2.35;0.95;;;;;;;19.61;47.31;98425.94;5024118;28;20540;-72
2023/06/27 00:42:43;;;;;;;1.13;0.70;;;;;;;19.28;47.90;98423.13;5065816;28;20023;-72
2023/06/27 00:45:09;;;;;;;6.72;1.00;;;;;;;19.60;47.61;98429.78;5054095;28;20052;-72
2023/06/27 00:47:34;;;;;;;1.50;0.82;;;;;;;19.81;47.29;98431.09;5036011;28;20044;-71
2023/06/27 00:49:59;;;;;;;1.50;0.90;;;;;;;19.75;47.38;98438.56;5036011;28;20486;-72
2023/06/27 00:52:25;;;;;;;1.45;0.47;;;;;;;19.23;47.94;98436.03;5066041;28;20049;-71
2023/06/27 00:54:51;;;;;;;1.10;0.90;;;;;;;19.73;47.68;98429.03;5053649;28;20048;-71
2023/06/27 00:57:16;;;;;;;1.10;0.88;;;;;;;19.28;48.49;98427.75;5053859;28;20028;-73
2023/06/27 00:59:43;;;;;;;4.88;1.00;;;;;;;19.68;47.88;98431.84;5035927;28;20060;-73
2023/06/27 01:02:08;;;;;;;4.50;1.27;;;;;;;19.56;47.84;98428.75;5053818;28;20108;-72
2023/06/27 01:04:35;;;;;;;1.25;0.68;;;;;;;19.73;47.69;98439.97;5052091;28;20033;-72
2023/06/27 01:07:22;;;;;;;150.65;17.67;;;;;;;18.93;49.58;98444.63;5055645;28;20035;-72
2023/06/27 01:09:52;;;;;;;2.25;0.80;;;;;;;19.56;48.65;98434.22;5061936;28;20032;-71
2023/06/27 01:12:58;;;;;;;95.40;27.73;;;;;;;19.57;48.29;98431.19;5048547;28;20497;-71
2023/06/27 01:15:24;;;;;;;38.10;3.65;;;;;;;19.44;48.71;98439.34;5055852;28;20056;-72
2023/06/27 01:17:50;;;;;;;3.92;1.40;;;;;;;19.29;49.31;98441.16;5061938;28;20457;-72
2023/06/27 01:20:15;;;;;;;1.20;0.60;;;;;;;19.27;48.71;98446.09;5049055;28;20096;-71
2023/06/27 01:22:47;;;;;;;1.38;1.00;;;;;;;19.30;49.11;98453.69;5039186;28;20025;-71
2023/06/27 01:25:12;;;;;;;1.00;0.60;;;;;;;19.32;48.72;98454.19;5069581;28;20422;-72
2023/06/27 01:27:38;;;;;;;0.77;0.77;;;;;;;19.06;49.40;98461.13;5055301;28;20028;-72
2023/06/27 01:30:04;;;;;;;1.30;0.80;;;;;;;18.90;49.96;98447.94;5054552;28;20029;-71
2023/06/27 01:32:41;;;;;;;1.48;0.82;;;;;;;19.40;49.04;98452.75;5064381;28;20436;-71
2023/06/27 01:35:11;;;;;;;2.15;1.00;;;;;;;19.12;49.86;98468.13;5066558;28;20119;-72
2023/06/27 01:37:44;;;;;;;1.27;0.80;;;;;;;19.46;49.23;98461.69;5061363;28;20044;-72
2023/06/27 01:40:11;;;;;;;2.20;0.90;;;;;;;19.30;49.26;98461.88;5051889;28;20033;-72
2023/06/27 01:42:41;;;;;;;1.92;1.63;;;;;;;19.11;49.62;98461.03;5051628;28;20491;-72
2023/06/27 01:45:07;;;;;;;2.88;1.27;;;;;;;19.21;48.67;98460.91;5059130;28;20047;-73
2023/06/27 01:47:35;;;;;;;1.85;1.02;;;;;;;19.45;48.70;98463.63;5057497;28;20090;-72
2023/06/27 01:50:01;;;;;;;5.15;1.20;;;;;;;19.16;48.85;98471.88;5051835;28;20116;-72
2023/06/27 01:52:27;;;;;;;2.00;0.98;;;;;;;19.03;49.58;98467.16;5064731;28;20021;-72
2023/06/27 01:54:52;;;;;;;2.00;1.35;;;;;;;18.99;50.19;98463.38;5034577;28;20033;-73
2023/06/27 01:57:17;;;;;;;7.13;1.13;;;;;;;19.14;49.43;98460.44;5052700;28;20028;-72
2023/06/27 01:59:43;;;;;;;1.55;1.05;;;;;;;19.14;49.89;98465.91;5034831;28;20048;-73
2023/06/27 02:02:08;;;;;;;1.60;0.85;;;;;;;18.97;50.83;98465.59;5064810;28;20028;-73
2023/06/27 02:04:34;;;;;;;1.27;0.80;;;;;;;18.92;50.18;98475.75;5056162;28;20036;-72
2023/06/27 02:06:59;;;;;;;5.00;1.23;;;;;;;18.79;50.47;98463.63;5064578;28;20047;-72
2023/06/27 02:09:24;;;;;;;1.50;1.20;;;;;;;18.62;51.04;98468.75;5063836;28;20040;-72
2023/06/27 02:11:50;;;;;;;3.08;0.80;;;;;;;18.97;50.64;98465.59;5064373;28;20063;-71
2023/06/27 02:14:15;;;;;;;1.25;0.73;;;;;;;18.62;51.13;98468.75;5050715;28;20483;-72
2023/06/27 02:16:41;;;;;;;4.05;0.80;;;;;;;18.65;51.17;98468.16;5047833;28;20490;-72
2023/06/27 02:19:07;;;;;;;1.60;0.70;;;;;;;18.85;50.80;98469.84;5055228;28;20388;-72
2023/06/27 02:21:32;;;;;;;0.77;0.60;;;;;;;18.43;51.57;98478.72;5060713;28;20390;-71
2023/06/27 02:23:58;;;;;;;0.77;0.77;;;;;;;18.55;50.57;98471.00;5071495;28;20036;-71
2023/06/27 02:26:23;;;;;;;0.43;0.40;;;;;;;18.05;51.96;98472.25;5051560;28;20033;-72
2023/06/27 02:28:48;;;;;;;2.03;1.10;;;;;;;18.58;51.38;98473.94;5070967;28;20505;-72
2023/06/27 02:31:14;;;;;;;2.53;1.13;;;;;;;17.92;53.34;98475.66;5070887;28;20109;-72
2023/06/27 02:33:39;;;;;;;4.63;1.60;;;;;;;17.19;55.71;98467.38;5046907;28;20048;-72
2023/06/27 02:36:05;;;;;;;3.25;1.00;;;;;;;17.12;56.20;98482.38;5064436;28;20031;-73
2023/06/27 02:38:31;;;;;;;2.13;1.17;;;;;;;17.41;55.93;98479.78;5051363;28;20086;-73
2023/06/27 02:40:56;;;;;;;2.63;0.82;;;;;;;16.94;57.47;98483.03;5065518;28;20020;-74
2023/06/27 02:43:22;;;;;;;1.95;1.20;;;;;;;16.83;58.36;98479.50;5054242;28;20029;-73
2023/06/27 02:45:47;;;;;;;2.70;1.50;;;;;;;16.97;58.37;98474.28;5054233;28;20024;-73
2023/06/27 02:48:12;;;;;;;1.95;1.00;;;;;;;16.88;58.98;98475.94;5051075;28;20498;-72
2023/06/27 02:50:38;;;;;;;1.30;0.90;;;;;;;17.12;57.88;98468.78;5054106;28;20029;-72
2023/06/27 02:53:03;;;;;;;3.13;1.30;;;;;;;17.21;57.42;98480.69;5053798;28;20101;-73
2023/06/27 02:55:28;;;;;;;3.03;1.00;;;;;;;17.45;55.89;98476.22;5071305;28;20027;-74
2023/06/27 02:57:54;;;;;;;2.78;1.30;;;;;;;17.12;57.23;98477.75;5054405;28;20093;-73
2023/06/27 03:00:21;;;;;;;1.48;0.93;;;;;;;17.30;57.00;98476.28;5057811;28;20032;-73
2023/06/27 03:02:46;;;;;;;4.88;1.20;;;;;;;17.49;56.47;98477.28;5050395;28;20475;-73
2023/06/27 03:05:12;;;;;;;2.00;1.30;;;;;;;17.64;56.12;98474.47;5064150;28;20035;-73
2023/06/27 03:07:38;;;;;;;2.30;1.30;;;;;;;17.90;55.75;98467.75;5064136;28;20412;-73
2023/06/27 03:10:05;;;;;;;7.32;1.30;;;;;;;17.95;56.31;98475.88;5063951;28;20028;-73
2023/06/27 03:12:30;;;;;;;3.75;1.48;;;;;;;17.43;56.89;98478.41;5053599;28;20039;-73
2023/06/27 03:14:58;;;;;;;2.45;1.17;;;;;;;17.55;56.39;98483.56;5053951;28;20028;-73
2023/06/27 03:17:24;;;;;;;6.00;1.50;;;;;;;17.79;55.43;98479.00;5063939;28;20422;-73
2023/06/27 03:19:49;;;;;;;44.88;3.88;;;;;;;17.55;56.15;98481.63;5030696;28;20016;-72
2023/06/27 03:22:16;;;;;;;3.30;1.83;;;;;;;17.42;57.06;98495.03;5037480;28;20069;-72
2023/06/27 03:24:41;;;;;;;2.15;1.88;;;;;;;17.30;58.19;98489.91;5053613;28;20624;-72
2023/06/27 03:27:07;;;;;;;3.15;1.30;;;;;;;17.21;58.01;98491.59;5064028;28;20045;-73
2023/06/27 03:29:36;;;;;;;4.30;1.58;;;;;;;16.53;59.51;98502.16;5047811;28;20041;-72
2023/06/27 03:32:02;;;;;;;2.80;0.98;;;;;;;16.18;60.81;98494.03;5041344;28;20429;-74
2023/06/27 03:34:28;;;;;;;3.17;1.48;;;;;;;16.66;59.23;98505.41;5071077;28;20035;-73
2023/06/27 03:36:53;;;;;;;2.72;1.20;;;;;;;16.66;59.41;98506.22;5074669;28;20033;-74
2023/06/27 03:39:18;;;;;;;4.90;1.83;;;;;;;16.66;59.73;98494.53;5061271;28;20028;-73
2023/06/27 03:41:47;;;;;;;2.65;1.40;;;;;;;16.42;60.25;98505.97;5041603;28;20029;-73
2023/06/27 03:44:12;;;;;;;2.97;1.70;;;;;;;16.55;60.15;98500.00;5067879;28;20543;-73
2023/06/27 03:46:39;;;;;;;2.85;1.42;;;;;;;16.34;60.97;98506.50;5057796;28;20166;-72
2023/06/27 03:49:04;;;;;;;2.92;1.10;;;;;;;16.51;60.46;98504.34;5054443;28;20032;-71
2023/06/27 03:51:32;;;;;;;2.55;1.48;;;;;;;16.99;58.89;98510.22;5057993;28;20662;-73
2023/06/27 03:54:00;;;;;;;3.65;1.13;;;;;;;16.51;60.13;98511.69;5074065;28;20082;-73
2023/06/27 03:56:26;;;;;;;2.15;1.23;;;;;;;16.84;59.34;98507.53;5054460;28;20032;-72
2023/06/27 03:58:52;;;;;;;1.50;0.88;;;;;;;16.58;59.93;98514.94;5031828;28;20021;-73
2023/06/27 04:01:18;;;;;;;2.08;1.20;;;;;;;16.69;59.77;98504.84;5037628;28;20442;-72
2023/06/27 04:03:45;;;;;;;2.83;1.17;;;;;;;16.94;59.71;98510.22;5066655;28;20070;-72
2023/06/27 04:06:10;;;;;;;0.82;0.70;;;;;;;16.69;59.63;98518.44;5036981;28;20459;-72
2023/06/27 04:08:36;;;;;;;1.88;1.10;;;;;;;16.40;60.48;98519.03;5066918;28;20058;-72
2023/06/27 04:11:01;;;;;;;2.78;1.30;;;;;;;15.99;61.80;98522.81;5053568;28;20051;-73
2023/06/27 04:13:29;;;;;;;2.92;1.65;;;;;;;16.37;61.61;98526.91;5036695;28;20082;-74
2023/06/27 04:15:55;;;;;;;2.83;1.30;;;;;;;16.22;61.82;98521.50;5066662;28;20393;-74
2023/06/27 04:18:20;;;;;;;2.63;1.77;;;;;;;16.55;60.81;98521.75;5049955;28;20020;-75
2023/06/27 04:20:46;;;;;;;2.72;1.63;;;;;;;16.17;61.75;98522.31;5028061;28;20041;-74
2023/06/27 04:23:12;;;;;;;2.72;2.53;;;;;;;15.88;63.26;98521.19;5059730;28;20021;-75
2023/06/27 04:25:37;;;;;;;6.28;2.40;;;;;;;15.94;62.74;98528.25;5066698;28;20032;-75
2023/06/27 04:28:04;;;;;;;4.43;2.00;;;;;;;16.11;62.78;98533.44;5051181;28;20789;-76
2023/06/27 04:30:29;;;;;;;2.47;1.52;;;;;;;16.10;64.12;98535.34;5072980;28;20055;-75
2023/06/27 04:32:55;;;;;;;4.32;2.50;;;;;;;16.03;64.21;98533.97;5074821;28;20364;-75
2023/06/27 04:35:20;;;;;;;34.17;11.02;;;;;;;16.20;63.04;98540.75;5060634;28;20040;-75
2023/06/27 04:37:46;;;;;;;4.55;1.35;;;;;;;15.86;66.09;98545.09;5058321;28;20028;-75
2023/06/27 04:40:12;;;;;;;2.10;1.40;;;;;;;16.44;63.75;98552.72;5061144;28;20617;-74
2023/06/27 04:42:38;;;;;;;2.72;2.00;;;;;;;16.63;63.43;98546.75;5054106;28;20443;-76
2023/06/27 04:45:05;;;;;;;3.10;1.85;;;;;;;16.56;62.64;98550.56;5072545;28;20040;-76
2023/06/27 04:47:32;;;;;;;2.00;1.67;;;;;;;16.70;62.60;98550.00;5042623;28;20021;-75
2023/06/27 04:49:58;;;;;;;3.78;1.50;;;;;;;16.73;61.06;98544.00;5065659;28;20060;-75
2023/06/27 04:52:23;;;;;;;2.35;1.30;;;;;;;17.29;60.66;98548.97;5054459;28;20029;-76
2023/06/27 04:54:49;;;;;;;3.45;1.60;;;;;;;17.39;60.83;98553.56;5064277;28;20463;-75
2023/06/27 04:57:15;;;;;;;2.72;1.55;;;;;;;17.20;62.69;98550.66;5054059;28;20032;-75
2023/06/27 04:59:41;;;;;;;2.08;1.60;;;;;;;17.60;61.13;98548.88;5020006;28;20403;-76
2023/06/27 05:02:07;;;;;;;4.38;3.17;;;;;;;17.70;59.60;98544.19;5066051;28;20027;-74
2023/06/27 05:04:33;;;;;;;4.05;3.38;;;;;;;17.08;63.65;98546.63;5052246;28;20029;-76
2023/06/27 05:06:58;;;;;;;3.20;2.97;;;;;;;17.82;59.25;98561.00;5038444;28;20490;-76
2023/06/27 05:09:24;;;;;;;3.22;2.90;;;;;;;17.68;60.18;98562.72;5063518;28;20048;-76
2023/06/27 05:11:49;;;;;;;1.85;1.40;;;;;;;17.53;58.06;98565.50;5049105;28;20036;-76
2023/06/27 05:14:15;;;;;;;2.30;1.75;;;;;;;18.47;54.98;98553.44;5060897;28;20033;-76
2023/06/27 05:16:40;;;;;;;1.80;1.65;;;;;;;17.56;55.03;98570.41;5070193;28;20020;-77
2023/06/27 05:19:05;;;;;;;3.15;1.83;;;;;;;17.29;55.58;98568.03;5027571;28;20102;-75
2023/06/27 05:21:31;;;;;;;2.10;1.40;;;;;;;17.61;55.91;98567.66;5071680;28;20527;-76
2023/06/27 05:23:56;;;;;;;3.13;1.63;;;;;;;17.99;55.22;98560.63;5039180;28;20040;-76
2023/06/27 05:26:22;;;;;;;3.13;1.20;;;;;;;17.94;55.09;98560.66;5066261;28;20029;-77
2023/06/27 05:28:47;;;;;;;4.25;1.42;;;;;;;18.22;54.37;98550.91;5065124;28;20037;-77
2023/06/27 05:31:13;;;;;;;1.77;1.10;;;;;;;17.83;55.04;98565.34;5052155;28;20033;-73
2023/06/27 05:33:38;;;;;;;1.95;1.27;;;;;;;17.89;55.47;98566.97;5053011;28;20041;-74
2023/06/27 05:36:04;;;;;;;3.28;1.20;;;;;;;18.72;53.46;98564.13;5051904;28;20029;-74
2023/06/27 05:38:29;;;;;;;2.50;1.48;;;;;;;17.80;54.67;98560.47;5053216;28;20499;-74
2023/06/27 05:40:55;;;;;;;4.05;1.60;;;;;;;18.08;54.45;98561.66;5049090;28;20021;-74
2023/06/27 05:43:21;;;;;;;2.83;1.27;;;;;;;18.42;54.54;98572.53;5054889;28;20482;-74
2023/06/27 05:45:47;;;;;;;2.60;1.30;;;;;;;17.95;54.92;98584.91;5072282;28;20436;-75
2023/06/27 05:48:12;;;;;;;2.95;1.40;;;;;;;18.32;55.19;98583.56;5042245;28;20111;-74
2023/06/27 05:50:38;;;;;;;2.88;1.58;;;;;;;18.58;54.06;98576.78;5059263;28;20115;-73
2023/06/27 05:53:04;;;;;;;5.10;1.40;;;;;;;18.37;54.51;98580.75;5051383;28;20116;-74
2023/06/27 05:55:32;;;;;;;2.13;0.80;;;;;;;18.88;52.86;98575.72;5051829;28;20021;-74
2023/06/27 05:57:57;;;;;;;1.63;1.17;;;;;;;18.85;53.93;98570.81;5034661;28;20053;-74
2023/06/27 06:00:22;;;;;;;1.05;0.73;;;;;;;18.44;54.69;98567.63;5065361;28;20025;-74
2023/06/27 06:02:48;;;;;;;1.83;0.80;;;;;;;18.28;54.58;98568.84;5064487;28;20395;-74
2023/06/27 06:05:14;;;;;;;24.88;4.55;;;;;;;18.32;54.04;98572.66;5048208;28;20055;-73
2023/06/27 06:07:42;;;;;;;1.50;0.77;;;;;;;18.47;53.61;98569.81;5035104;28;20041;-74
2023/06/27 06:10:09;;;;;;;2.13;0.60;;;;;;;18.33;53.72;98580.53;5051812;28;20052;-74
2023/06/27 06:12:35;;;;;;;1.85;1.05;;;;;;;18.81;53.10;98581.47;5051089;28;20406;-73
2023/06/27 06:15:01;;;;;;;2.22;1.00;;;;;;;18.46;52.33;98579.91;5054713;28;20081;-72
2023/06/27 06:17:26;;;;;;;1.00;0.50;;;;;;;19.26;50.60;98577.44;5065015;28;20481;-72
2023/06/27 06:19:52;;;;;;;2.05;1.02;;;;;;;18.77;50.82;98580.44;5065532;28;20032;-74
2023/06/27 06:22:18;;;;;;;1.13;0.63;;;;;;;18.73;50.70;98581.31;5058360;28;20478;-74
2023/06/27 06:24:43;;;;;;;1.20;0.88;;;;;;;18.15;52.14;98577.69;5046482;28;20062;-74
2023/06/27 06:27:08;;;;;;;0.77;0.63;;;;;;;18.36;51.21;98584.59;5054065;28;20059;-74
2023/06/27 06:29:34;;;;;;;0.63;0.63;;;;;;;18.55;51.35;98589.09;5070858;28;20024;-74
2023/06/27 06:31:59;;;;;;;0.28;0.28;;;;;;;19.02;49.70;98585.63;5071102;28;20401;-73
2023/06/27 06:34:25;;;;;;;3.42;0.60;;;;;;;18.56;51.42;98589.91;5070645;28;20101;-74
2023/06/27 06:36:51;;;;;;;0.28;0.20;;;;;;;20.10;48.41;98575.81;5051153;28;20116;-74
2023/06/27 06:39:16;;;;;;;1.85;0.82;;;;;;;18.55;50.57;98582.84;5027783;28;20021;-74
2023/06/27 06:41:42;;;;;;;0.85;0.47;;;;;;;19.52;49.61;98578.00;5065329;28;20037;-74
2023/06/27 06:44:10;;;;;;;1.38;0.57;;;;;;;19.60;49.23;98571.88;5045084;28;20024;-74
2023/06/27 06:46:37;;;;;;;1.00;0.73;;;;;;;19.39;49.46;98570.53;5050784;28;20037;-74
2023/06/27 06:49:03;;;;;;;1.45;0.80;;;;;;;19.17;49.58;98574.56;5064337;28;20516;-74
2023/06/27 06:51:28;;;;;;;1.25;0.90;;;;;;;19.61;48.66;98570.75;5040738;28;20044;-74
2023/06/27 06:53:53;;;;;;;0.85;0.50;;;;;;;19.74;48.24;98589.19;5056927;28;20025;-74
2023/06/27 06:56:19;;;;;;;1.13;0.77;;;;;;;19.57;47.90;98577.94;5034035;28;20037;-74
2023/06/27 06:58:44;;;;;;;0.98;0.50;;;;;;;18.83;49.62;98587.50;5050509;28;20106;-74
2023/06/27 07:01:09;;;;;;;1.67;0.80;;;;;;;20.16;47.63;98580.09;5034027;28;20043;-74
2023/06/27 07:03:35;;;;;;;0.70;0.60;;;;;;;19.92;47.64;98575.53;5063588;28;20013;-74
2023/06/27 07:06:00;;;;;;;0.63;0.50;;;;;;;19.37;49.00;98594.59;5064026;28;20029;-74
2023/06/27 07:08:25;;;;;;;1.98;1.10;;;;;;;19.53;48.04;98585.09;5050101;28;20494;-74
2023/06/27 07:10:51;;;;;;;6.38;0.70;;;;;;;19.50;48.51;98586.50;5063667;28;20044;-74
2023/06/27 07:13:16;;;;;;;0.85;0.60;;;;;;;19.80;48.56;98583.34;5064196;28;20367;-74
2023/06/27 07:15:42;;;;;;;1.63;0.80;;;;;;;19.15;49.65;98597.78;5058086;28;20028;-74
2023/06/27 07:18:08;;;;;;;3.00;0.90;;;;;;;20.14;47.44;98587.81;5053768;28;20036;-74
2023/06/27 07:20:33;;;;;;;0.88;0.85;;;;;;;18.41;50.44;98592.75;5050159;28;20398;-74
2023/06/27 07:22:58;;;;;;;0.35;0.35;;;;;;;19.40;48.90;98588.50;5059492;28;20067;-74
2023/06/27 07:25:24;;;;;;;1.90;0.98;;;;;;;20.57;45.54;98579.19;5063462;28;20133;-73
2023/06/27 07:27:49;;;;;;;2.38;1.13;;;;;;;20.45;45.30;98584.31;5062964;28;20467;-73
2023/06/27 07:30:15;;;;;;;2.72;1.00;;;;;;;19.37;47.40;98594.59;5058006;28;20036;-74
2023/06/27 07:32:41;;;;;;;4.85;0.98;;;;;;;19.42;47.54;98587.13;5057281;28;20075;-74
2023/06/27 07:35:06;;;;;;;2.88;1.10;;;;;;;19.97;46.29;98582.84;5049407;28;20472;-74
2023/06/27 07:37:32;;;;;;;1.95;0.93;;;;;;;19.36;46.76;98580.09;5059308;28;20037;-74
2023/06/27 07:40:00;;;;;;;2.58;1.15;;;;;;;19.57;46.52;98583.41;5064937;28;20047;-74
2023/06/27 07:42:26;;;;;;;4.22;0.90;;;;;;;19.48;46.37;98593.34;5050027;28;20021;-74
2023/06/27 07:44:51;;;;;;;2.85;1.10;;;;;;;19.14;48.19;98591.50;5049261;28;20115;-74
2023/06/27 07:47:16;;;;;;;2.10;0.95;;;;;;;19.42;47.67;98586.34;5033417;28;20049;-74
2023/06/27 07:49:42;;;;;;;1.83;0.93;;;;;;;19.87;46.76;98593.91;5052539;28;20037;-74
2023/06/27 07:52:08;;;;;;;1.92;1.00;;;;;;;19.07;46.76;98588.31;5070101;28;20429;-74
2023/06/27 07:54:34;;;;;;;0.85;0.68;;;;;;;20.22;44.62;98579.75;5047442;28;20041;-74
2023/06/27 07:56:59;;;;;;;1.00;0.60;;;;;;;20.33;44.75;98570.28;5049734;28;20099;-74
2023/06/27 07:59:25;;;;;;;2.22;1.10;;;;;;;20.80;44.02;98571.09;5046690;28;20117;-74
2023/06/27 08:01:50;;;;;;;2.28;0.93;;;;;;;20.45;43.90;98572.53;5041197;28;20021;-74
2023/06/27 08:04:16;;;;;;;1.70;0.70;;;;;;;20.56;41.99;98568.53;5047858;28;20111;-74
2023/06/27 08:06:42;;;;;;;1.00;0.90;;;;;;;19.86;43.14;98564.97;5058258;28;20120;-74
2023/06/27 08:09:07;;;;;;;0.30;0.30;;;;;;;20.51;43.07;98566.66;5064438;28;20108;-74
2023/06/27 08:11:33;;;;;;;1999.90;999.90;;;;;;;20.24;43.51;98566.59;5061231;28;20535;-73
2023/06/27 08:13:58;;;;;;;4.00;1.40;;;;;;;20.35;43.64;98567.25;5049839;28;20037;-74
2023/06/27 08:16:24;;;;;;;1.55;1.00;;;;;;;20.66;43.13;98558.22;5066153;28;20025;-74
2023/06/27 08:18:49;;;;;;;3.53;1.08;;;;;;;20.37;45.23;98571.31;5068084;28;20028;-74
2023/06/27 08:21:14;;;;;;;2.10;1.05;;;;;;;20.64;43.93;98568.66;5063355;28;20025;-74
2023/06/27 08:23:40;;;;;;;4.00;1.15;;;;;;;20.06;43.62;98551.00;5066413;28;20037;-74
2023/06/27 08:26:05;;;;;;;7.05;6.20;;;;;;;21.33;41.50;98562.16;5068971;28;20105;-74
2023/06/27 08:28:31;;;;;;;2.58;0.90;;;;;;;20.96;40.96;98559.56;5059309;28;20044;-74
2023/06/27 08:30:57;;;;;;;4.30;1.23;;;;;;;20.74;39.90;98550.41;5068161;28;20065;-74
2023/06/27 08:33:22;;;;;;;2.17;1.17;;;;;;;20.74;41.29;98553.97;5065680;28;20033;-74
2023/06/27 08:35:48;;;;;;;2.28;0.75;;;;;;;20.82;40.48;98560.69;5054931;28;20020;-74
2023/06/27 08:38:14;;;;;;;1.58;0.73;;;;;;;20.10;41.76;98560.22;5071317;28;20535;-74
2023/06/27 08:40:41;;;;;;;1.65;0.80;;;;;;;20.38;40.51;98561.97;5061535;28;20029;-74
2023/06/27 08:43:09;;;;;;;1.70;0.77;;;;;;;20.39;40.85;98547.19;5039868;28;20031;-74
2023/06/27 08:45:35;;;;;;;1.08;0.60;;;;;;;21.48;39.20;98547.34;5061086;28;20021;-74
2023/06/27 08:48:01;;;;;;;3.88;0.85;;;;;;;21.82;38.01;98546.88;5057241;28;20469;-74
2023/06/27 08:50:28;;;;;;;8.30;2.28;;;;;;;21.84;38.57;98542.72;5061055;28;20033;-74
2023/06/27 08:52:58;;;;;;;2.30;1.30;;;;;;;21.30;39.96;98551.00;5065943;28;20036;-74
2023/06/27 08:55:42;;;;;;;3.35;1.55;;;;;;;21.81;39.02;98529.59;5053905;28;20039;-74
2023/06/27 08:58:14;;;;;;;2.88;1.40;;;;;;;22.12;38.89;98537.16;5052727;28;20387;-74
2023/06/27 09:00:41;;;;;;;69.68;7.22;;;;;;;21.96;39.41;98533.97;5052556;28;20056;-74
2023/06/27 09:03:06;;;;;;;2.55;1.35;;;;;;;21.72;39.13;98536.94;5052444;28;20021;-74
2023/06/27 09:05:33;;;;;;;5.03;1.30;;;;;;;21.29;40.78;98543.88;5059298;28;20040;-74
2023/06/27 09:07:59;;;;;;;4.55;2.13;;;;;;;21.20;39.48;98535.59;5050851;28;20028;-74
2023/06/27 09:10:25;;;;;;;2.80;1.30;;;;;;;22.37;38.53;98533.78;5071663;28;20088;-74
2023/06/27 09:12:52;;;;;;;287.20;192.25;;;;;;;21.82;39.63;98531.22;5071936;28;20090;-74
2023/06/27 09:15:18;;;;;;;4.85;1.55;;;;;;;22.17;37.87;98531.56;5066531;28;20032;-74
2023/06/27 09:17:43;;;;;;;2.95;1.30;;;;;;;22.41;37.41;98521.03;5072271;28;20085;-74
2023/06/27 09:20:09;;;;;;;5.28;1.48;;;;;;;22.12;38.88;98523.44;5053023;28;20120;-74
2023/06/27 09:22:36;;;;;;;2.85;1.38;;;;;;;21.59;38.36;98526.81;5052176;28;20020;-74
2023/06/27 09:25:19;;;;;;;2.22;1.30;;;;;;;21.84;38.42;98519.97;5037390;28;20025;-74
2023/06/27 09:27:45;;;;;;;3.17;1.45;;;;;;;21.39;37.32;98521.78;5047855;28;20563;-74
2023/06/27 09:30:11;;;;;;;2.47;1.40;;;;;;;21.58;39.07;98527.94;5063030;28;20024;-74
2023/06/27 09:32:53;;;;;;;4.07;1.60;;;;;;;21.94;38.77;98520.53;5070032;28;20036;-74
2023/06/27 09:35:19;;;;;;;1.95;1.55;;;;;;;22.21;37.85;98532.53;5058863;28;20036;-74
2023/06/27 09:37:45;;;;;;;2.22;1.13;;;;;;;22.02;39.39;98525.31;5052456;28;20028;-74
2023/06/27 09:40:21;;;;;;;3.63;1.38;;;;;;;21.76;39.96;98518.75;5062903;28;20087;-74
2023/06/27 09:42:49;;;;;;;;;;;;;;;21.90;39.84;98516.81;5053873;28;20033;-75
2023/06/27 09:45:15;;;;;;;2.67;1.52;;;;;;;21.42;40.50;98515.69;5064018;28;19908;-74
2023/06/27 09:47:41;;;;;;;3.65;1.40;;;;;;;21.90;39.21;98516.00;5063117;28;20067;-74
2023/06/27 09:50:07;;;;;;;2.75;1.73;;;;;;;22.19;38.36;98521.06;5050718;28;20121;-74
2023/06/27 09:52:32;;;;;;;3.45;1.35;;;;;;;23.35;35.87;98507.81;5071499;28;20406;-74
2023/06/27 09:54:58;;;;;;;2.75;1.38;;;;;;;22.37;37.54;98509.09;5051205;28;20028;-74
2023/06/27 09:57:25;;;;;;;6.07;1.55;;;;;;;23.20;36.28;98503.53;5068359;28;20483;-74
2023/06/27 09:59:57;;;;;;;4.15;1.83;;;;;;;22.61;37.61;98502.13;5062409;28;20021;-74
2023/06/27 10:02:27;;;;;;;3.42;1.73;;;;;;;22.09;38.50;98513.88;5066376;28;20044;-74
2023/06/27 10:04:53;;;;;;;2.38;1.23;;;;;;;22.42;36.30;98511.69;5041447;28;20029;-74
2023/06/27 10:07:18;;;;;;;59.40;5.25;;;;;;;22.68;37.16;98516.22;5064837;28;20028;-75
2023/06/27 10:09:44;;;;;;;3.10;1.50;;;;;;;22.85;37.13;98518.25;5058759;28;20166;-74
2023/06/27 10:12:10;;;;;;;2.78;1.52;;;;;;;22.45;36.95;98516.56;5042938;28;20032;-74
2023/06/27 10:14:35;;;;;;;2.58;1.75;;;;;;;21.97;36.93;98522.69;5064021;28;20052;-74
2023/06/27 10:17:02;;;;;;;3.03;1.45;;;;;;;22.71;36.38;98523.03;5034772;28;20456;-74
2023/06/27 10:19:30;;;;;;;2.35;1.20;;;;;;;23.07;35.35;98523.69;5052357;28;20061;-74
2023/06/27 10:21:58;;;;;;;5.30;1.55;;;;;;;23.56;34.99;98511.56;5051091;28;20031;-74
2023/06/27 10:24:24;;;;;;;3.65;1.50;;;;;;;22.83;34.53;98517.75;5041588;28;20126;-74
2023/06/27 10:26:51;;;;;;;3.17;1.40;;;;;;;23.07;34.91;98522.88;5054374;28;20096;-74
2023/06/27 10:29:16;;;;;;;3.85;1.48;;;;;;;22.73;35.03;98506.25;5060129;28;20051;-74
2023/06/27 10:31:45;;;;;;;3.00;1.60;;;;;;;24.14;34.96;98508.38;5034199;28;20033;-74
2023/06/27 10:34:17;;;;;;;3.08;1.58;;;;;;;23.06;35.94;98499.25;5061463;28;20044;-74
2023/06/27 10:36:54;;;;;;;3.10;1.50;;;;;;;23.27;34.05;98503.88;5058481;28;20075;-74
2023/06/27 10:39:27;;;;;;;3.72;1.73;;;;;;;23.44;35.07;98507.81;5058900;28;20040;-74
2023/06/27 10:42:19;;;;;;;3.63;1.60;;;;;;;23.92;34.32;98486.53;5050798;28;20494;-74
2023/06/27 10:44:53;;;;;;;1213.43;530.67;;;;;;;24.31;34.87;98497.38;5063211;28;20376;-74
2023/06/27 10:47:18;;;;;;;1999.90;999.90;;;;;;;23.80;35.04;98502.88;5064100;28;20491;-74
2023/06/27 10:49:48;;;;;;;3.08;1.23;;;;;;;23.80;34.31;98489.94;5065004;28;20028;-74
2023/06/27 10:52:24;;;;;;;143.35;45.60;;;;;;;24.26;34.17;98492.03;5046643;28;20043;-74
2023/06/27 10:55:18;;;;;;;28.10;16.25;;;;;;;24.01;33.38;98495.59;5059095;28;20033;-74
2023/06/27 10:58:06;;;;;;;35.33;17.13;;;;;;;24.86;35.02;98491.88;5052261;28;20495;-74
2023/06/27 11:00:33;;;;;;;4.90;4.40;;;;;;;24.26;32.57;98489.28;5048598;28;20036;-74
2023/06/27 11:03:03;;;;;;;1.23;1.13;;;;;;;23.52;34.60;98490.53;5050142;28;20106;-74
2023/06/27 11:05:36;;;;;;;5.90;1.40;;;;;;;24.52;34.16;98486.47;5047759;28;20037;-74
2023/06/27 11:08:02;;;;;;;1.20;1.10;;;;;;;23.64;35.29;98493.47;5060335;28;20036;-74
2023/06/27 11:10:29;;;;;;;2.45;1.08;;;;;;;24.31;32.99;98489.09;5064559;28;20044;-74
2023/06/27 11:13:16;;;;;;;1.48;0.98;;;;;;;24.14;32.84;98491.88;5069811;28;20032;-74
2023/06/27 11:15:43;;;;;;;2.90;2.70;;;;;;;22.95;33.40;98493.25;5052178;28;20109;-74
2023/06/27 11:18:09;;;;;;;3.53;3.33;;;;;;;23.20;33.69;98484.28;5046623;28;20031;-74
2023/06/27 11:20:36;;;;;;;6.40;2.92;;;;;;;23.16;33.71;98483.31;5039974;28;20040;-74
2023/06/27 11:23:03;;;;;;;3.63;3.33;;;;;;;23.21;33.93;98480.41;5049638;28;20073;-74
2023/06/27 11:25:34;;;;;;;3.78;3.47;;;;;;;23.01;33.50;98477.47;5056525;28;20043;-74
2023/06/27 11:27:59;;;;;;;2.10;1.42;;;;;;;22.72;34.05;98480.72;5058763;28;20406;-74
2023/06/27 11:30:27;;;;;;;1.60;1.25;;;;;;;23.21;34.33;98485.09;5065993;28;20025;-74